Time;durP1;ratioP1;P1;durP2;ratioP2;P2;SDS_P1;SDS_P2;PMS_P1;PMS_P2;Temp;Humidity;BMP_temperature;BMP_pressure;BME280_temperature;BME280_humidity;BME280_pressure;Samples;Min_cycle;Max_cycle;Signal;HPM_P1;HPM_P2
2022/12/30 00:01:19;;;;;;;19.58;4.18;;;8.10;93.80;;;;;;5046079;28;20029;-71
2022/12/30 00:03:46;;;;;;;16.70;4.10;;;8.10;93.80;;;;;;5038503;28;20095;-71
2022/12/30 00:06:18;;;;;;;13.52;3.97;;;8.10;93.80;;;;;;5041945;28;20135;-73
2022/12/30 00:08:48;;;;;;;18.77;3.92;;;8.10;93.70;;;;;;5055808;28;20454;-72
2022/12/30 00:11:32;;;;;;;14.95;3.78;;;8.10;93.70;;;;;;5024100;28;20029;-71
2022/12/30 00:34:27;;;;;;;18.60;3.45;;;7.90;93.80;;;;;;5042107;28;20068;-72
2022/12/30 00:36:54;;;;;;;18.15;3.83;;;7.90;93.80;;;;;;5043852;28;20465;-71
2022/12/30 00:39:22;;;;;;;15.02;3.30;;;7.80;93.80;;;;;;5038413;28;20036;-73
2022/12/30 00:44:31;;;;;;;16.23;3.28;;;7.80;93.80;;;;;;5032645;28;20029;-72
2022/12/30 00:46:58;;;;;;;18.83;4.03;;;7.80;93.80;;;;;;5032232;28;20471;-72
2022/12/30 00:57:37;;;;;;;14.32;3.03;;;7.70;93.80;;;;;;5037857;28;20549;-70
2022/12/30 01:00:06;;;;;;;18.17;3.40;;;7.60;94.00;;;;;;5044075;28;20114;-71
2022/12/30 01:02:31;;;;;;;19.70;3.58;;;7.70;94.00;;;;;;5051713;28;20095;-71
2022/12/30 01:04:57;;;;;;;15.68;3.42;;;7.70;94.00;;;;;;5044965;28;20154;-72
2022/12/30 01:07:23;;;;;;;13.25;2.95;;;7.60;94.00;;;;;;5039737;28;20028;-72
2022/12/30 01:09:48;;;;;;;14.07;2.92;;;7.60;94.00;;;;;;5035707;28;20075;-72
2022/12/30 01:12:14;;;;;;;14.35;3.15;;;7.60;94.20;;;;;;5037733;28;20029;-72
2022/12/30 01:14:45;;;;;;;19.95;4.32;;;7.60;94.10;;;;;;5048327;28;20026;-71
2022/12/30 01:17:13;;;;;;;13.02;2.92;;;7.60;94.20;;;;;;5031055;28;20869;-71
2022/12/30 01:19:40;;;;;;;17.58;3.15;;;7.50;94.20;;;;;;5040194;28;20067;-72
2022/12/30 01:22:06;;;;;;;17.23;4.40;;;7.60;94.30;;;;;;5039339;28;20051;-72
2022/12/30 01:24:32;;;;;;;14.07;3.90;;;7.50;94.30;;;;;;5054742;28;20545;-73
2022/12/30 01:26:57;;;;;;;16.80;3.22;;;7.40;94.40;;;;;;5047908;28;20026;-72
2022/12/30 01:29:27;;;;;;;17.65;4.07;;;7.50;94.40;;;;;;5048975;28;20546;-72
2022/12/30 01:31:57;;;;;;;19.65;3.58;;;7.50;94.30;;;;;;5036915;28;20033;-71
2022/12/30 01:34:23;;;;;;;;;;;7.40;94.30;;;;;;5054801;28;20062;-72
2022/12/30 01:36:51;;;;;;;12.30;3.90;;;7.50;94.40;;;;;;5047511;28;19909;-72
2022/12/30 01:39:17;;;;;;;17.15;4.22;;;7.40;94.30;;;;;;5043603;28;20016;-71
2022/12/30 01:41:42;;;;;;;16.33;3.10;;;7.40;94.40;;;;;;5050730;28;20522;-72
2022/12/30 01:44:46;;;;;;;12.45;3.33;;;7.30;94.50;;;;;;5035867;28;20020;-71
2022/12/30 01:47:18;;;;;;;14.95;2.55;;;7.30;94.60;;;;;;5041330;28;20091;-70
2022/12/30 01:49:48;;;;;;;13.10;2.80;;;7.30;94.50;;;;;;5047090;28;20040;-71
2022/12/30 01:52:16;;;;;;;13.38;3.00;;;7.30;94.50;;;;;;5026322;28;20025;-72
2022/12/30 01:54:42;;;;;;;14.18;2.70;;;7.30;94.60;;;;;;5038886;28;20556;-71
2022/12/30 01:57:08;;;;;;;15.23;3.22;;;7.30;94.50;;;;;;5041776;28;20025;-72
2022/12/30 01:59:36;;;;;;;10.98;2.67;;;7.30;94.50;;;;;;5038387;28;20043;-71
2022/12/30 02:02:02;;;;;;;16.17;3.28;;;7.30;94.50;;;;;;5066051;28;20024;-71
2022/12/30 02:04:29;;;;;;;14.10;3.47;;;7.30;94.60;;;;;;5033710;28;20029;-71
2022/12/30 02:07:16;;;;;;;12.85;2.80;;;7.30;94.70;;;;;;5060237;28;20028;-72
2022/12/30 02:09:44;;;;;;;13.90;3.25;;;7.20;94.70;;;;;;5032830;28;20039;-71
2022/12/30 02:12:11;;;;;;;20.50;3.92;;;7.20;94.70;;;;;;5063484;28;20029;-72
2022/12/30 02:14:39;;;;;;;15.75;3.00;;;7.30;94.70;;;;;;5036528;28;20032;-72
2022/12/30 02:17:11;;;;;;;15.80;2.58;;;7.30;94.70;;;;;;5028417;28;20130;-72
2022/12/30 02:20:13;;;;;;;15.00;3.80;;;7.30;94.60;;;;;;5028549;28;20029;-71
2022/12/30 02:23:00;;;;;;;21.42;4.30;;;7.30;94.70;;;;;;5051891;28;20024;-72
2022/12/30 02:25:55;;;;;;;9.07;2.15;;;7.30;94.70;;;;;;5038308;28;20060;-73
2022/12/30 02:28:24;;;;;;;11.85;2.30;;;7.30;94.70;;;;;;5016218;28;20049;-71
2022/12/30 02:31:12;;;;;;;12.55;2.95;;;7.30;94.70;;;;;;5017993;28;20077;-71
2022/12/30 02:33:46;;;;;;;15.65;3.83;;;7.30;94.80;;;;;;5034585;28;20034;-72
2022/12/30 02:36:39;;;;;;;12.60;3.13;;;7.30;94.70;;;;;;5040288;28;20127;-71
2022/12/30 02:39:16;;;;;;;13.90;2.95;;;7.30;94.70;;;;;;5049563;28;20111;-72
2022/12/30 02:44:39;;;;;;;11.48;2.97;;;7.20;94.90;;;;;;5035502;28;20128;-73
2022/12/30 02:47:28;;;;;;;20.55;3.70;;;7.20;94.60;;;;;;5033949;28;20093;-71
2022/12/30 02:52:53;;;;;;;10.68;2.88;;;7.20;94.60;;;;;;5037733;28;20041;-72
2022/12/30 02:55:20;;;;;;;16.13;3.63;;;7.20;94.70;;;;;;5037374;28;20155;-72
2022/12/30 02:57:45;;;;;;;22.67;3.67;;;7.20;94.90;;;;;;5059093;28;20032;-72
2022/12/30 03:06:38;;;;;;;15.85;3.55;;;7.20;94.70;;;;;;5036224;28;20131;-73
2022/12/30 03:09:10;;;;;;;13.98;3.13;;;7.20;94.70;;;;;;5035290;28;20575;-72
2022/12/30 03:11:50;;;;;;;20.40;3.83;;;7.20;94.80;;;;;;5039897;28;20027;-72
2022/12/30 03:14:50;;;;;;;13.60;3.30;;;7.10;94.80;;;;;;5037119;28;20086;-72
2022/12/30 03:17:21;;;;;;;14.02;3.80;;;7.10;94.90;;;;;;5022762;28;20059;-71
2022/12/30 03:19:51;;;;;;;15.82;3.15;;;7.20;94.90;;;;;;5051182;28;20435;-71
2022/12/30 03:27:55;;;;;;;19.15;4.45;;;7.20;95.00;;;;;;5052810;28;20027;-72
2022/12/30 03:30:21;;;;;;;18.77;4.45;;;7.20;95.00;;;;;;5052209;28;20395;-72
2022/12/30 03:32:47;;;;;;;20.23;4.55;;;7.20;95.00;;;;;;5039798;28;20025;-70
2022/12/30 03:35:13;;;;;;;18.10;3.83;;;7.20;94.90;;;;;;5059998;28;20013;-72
2022/12/30 03:37:51;;;;;;;19.98;3.78;;;7.20;94.80;;;;;;5045880;28;20031;-72
2022/12/30 03:40:23;;;;;;;17.23;3.85;;;7.20;94.80;;;;;;5045051;28;20044;-72
2022/12/30 03:42:52;;;;;;;18.58;3.60;;;7.20;94.80;;;;;;5024434;28;20025;-72
2022/12/30 03:45:18;;;;;;;26.58;4.53;;;7.20;94.70;;;;;;5059679;28;20109;-72
2022/12/30 03:47:44;;;;;;;28.10;7.07;;;7.30;94.70;;;;;;5039868;28;20025;-71
2022/12/30 03:50:10;;;;;;;22.67;6.07;;;7.30;94.60;;;;;;5062838;28;20175;-72
2022/12/30 03:52:36;;;;;;;26.10;6.88;;;7.30;94.70;;;;;;5051766;28;20128;-72
2022/12/30 03:55:03;;;;;;;20.70;5.15;;;7.30;94.60;;;;;;5058496;28;20032;-71
2022/12/30 03:57:29;;;;;;;19.45;4.53;;;7.20;94.60;;;;;;5035082;28;20875;-71
2022/12/30 03:59:54;;;;;;;19.25;4.60;;;7.20;94.60;;;;;;5059200;28;20102;-72
2022/12/30 04:02:20;;;;;;;17.52;4.15;;;7.20;94.60;;;;;;5033594;28;20030;-72
2022/12/30 04:04:46;;;;;;;23.15;5.25;;;7.20;94.70;;;;;;5050748;28;20044;-71
2022/12/30 04:07:12;;;;;;;16.85;3.28;;;7.20;94.70;;;;;;5048415;28;20030;-72
2022/12/30 04:09:37;;;;;;;20.80;4.00;;;7.20;94.60;;;;;;5047322;28;20025;-72
2022/12/30 04:12:03;;;;;;;21.33;3.63;;;7.10;94.70;;;;;;5051752;28;20049;-72
2022/12/30 04:14:29;;;;;;;21.67;5.13;;;7.10;94.70;;;;;;5043130;28;20021;-72
2022/12/30 04:16:55;;;;;;;19.65;3.15;;;7.10;94.80;;;;;;5050828;28;20036;-73
2022/12/30 04:19:20;;;;;;;14.23;3.20;;;7.10;94.80;;;;;;5045854;28;20030;-72
2022/12/30 04:21:47;;;;;;;18.20;3.42;;;7.10;94.80;;;;;;5044069;28;20025;-71
2022/12/30 04:24:13;;;;;;;16.38;2.83;;;7.20;94.80;;;;;;5017392;28;20162;-71
2022/12/30 04:26:38;;;;;;;17.50;4.32;;;7.10;94.70;;;;;;5037125;28;20104;-72
2022/12/30 04:29:04;;;;;;;16.50;3.78;;;7.10;94.80;;;;;;5034478;28;20829;-72
2022/12/30 04:31:30;;;;;;;15.77;3.13;;;7.10;94.80;;;;;;5054893;28;20026;-72
2022/12/30 04:33:55;;;;;;;19.60;4.45;;;7.10;95.00;;;;;;5030252;28;20033;-71
2022/12/30 04:36:21;;;;;;;11.85;2.83;;;7.10;94.80;;;;;;5057342;28;20029;-72
2022/12/30 04:38:47;;;;;;;25.17;4.22;;;7.10;94.80;;;;;;5029377;28;20029;-71
2022/12/30 04:41:14;;;;;;;16.17;3.03;;;7.00;94.80;;;;;;5048902;28;20040;-72
2022/12/30 04:43:40;;;;;;;15.57;2.70;;;7.00;94.80;;;;;;5047027;28;20076;-71
2022/12/30 04:46:06;;;;;;;17.85;4.30;;;7.00;94.80;;;;;;5046815;28;20033;-72
2022/12/30 04:48:32;;;;;;;16.85;3.70;;;7.00;94.80;;;;;;5049776;28;20391;-72
2022/12/30 04:50:58;;;;;;;21.92;3.80;;;6.90;94.80;;;;;;5043904;28;20067;-72
2022/12/30 04:53:24;;;;;;;23.15;4.43;;;7.00;95.00;;;;;;5044898;28;20057;-71
2022/12/30 04:55:53;;;;;;;11.23;3.53;;;6.90;94.90;;;;;;5048568;28;20017;-71
2022/12/30 04:58:19;;;;;;;19.63;4.50;;;6.90;95.10;;;;;;5035814;28;20033;-71
2022/12/30 05:00:47;;;;;;;21.55;3.80;;;6.90;95.20;;;;;;5040467;28;20048;-73
2022/12/30 05:03:13;;;;;;;16.75;3.30;;;6.80;95.10;;;;;;5034144;28;20045;-71
2022/12/30 05:05:38;;;;;;;14.63;3.10;;;6.80;95.20;;;;;;5026138;28;20021;-72
2022/12/30 05:08:04;;;;;;;22.60;4.20;;;6.80;95.30;;;;;;5050423;28;20479;-71
2022/12/30 05:10:33;;;;;;;14.25;3.53;;;6.80;95.30;;;;;;5042940;28;20119;-71
2022/12/30 05:12:59;;;;;;;14.80;3.50;;;6.80;95.30;;;;;;5039075;28;20095;-72
2022/12/30 05:15:24;;;;;;;14.05;3.95;;;6.80;95.30;;;;;;5029000;28;20029;-74
2022/12/30 05:17:50;;;;;;;15.85;3.20;;;6.80;95.40;;;;;;5050673;28;20025;-73
2022/12/30 05:20:16;;;;;;;24.95;4.03;;;6.70;95.40;;;;;;5052846;28;20506;-72
2022/12/30 05:22:42;;;;;;;18.35;2.72;;;6.80;95.50;;;;;;5043424;28;20021;-71
2022/12/30 05:27:52;;;;;;;22.48;4.45;;;6.80;95.50;;;;;;5041499;28;20041;-72
2022/12/30 05:30:18;;;;;;;20.58;3.40;;;6.80;95.50;;;;;;5013376;28;20417;-72
2022/12/30 05:32:44;;;;;;;12.43;2.80;;;6.80;95.50;;;;;;5036751;28;20027;-72
2022/12/30 05:35:13;;;;;;;17.92;3.63;;;6.70;95.50;;;;;;5020759;28;20414;-73
2022/12/30 05:37:39;;;;;;;18.73;3.40;;;6.70;95.60;;;;;;5029908;28;20087;-72
2022/12/30 05:40:05;;;;;;;14.93;3.60;;;6.70;95.60;;;;;;5043701;28;20472;-72
2022/12/30 05:42:31;;;;;;;18.05;4.22;;;6.70;95.80;;;;;;5043600;28;20017;-72
2022/12/30 05:44:57;;;;;;;22.10;3.22;;;6.70;95.60;;;;;;5044682;28;20044;-73
2022/12/30 05:47:22;;;;;;;14.70;3.83;;;6.70;95.70;;;;;;5047631;28;20111;-71
2022/12/30 05:49:48;;;;;;;28.95;4.72;;;6.80;95.70;;;;;;5024940;28;20041;-72
2022/12/30 05:52:14;;;;;;;16.83;3.45;;;6.80;95.60;;;;;;5033741;28;20070;-71
2022/12/30 05:54:41;;;;;;;16.95;3.25;;;6.80;95.70;;;;;;5039225;28;20029;-71
2022/12/30 05:57:06;;;;;;;15.35;3.25;;;6.70;96.00;;;;;;5040911;28;20084;-72
2022/12/30 05:59:32;;;;;;;15.82;2.90;;;6.70;95.80;;;;;;5030628;28;20025;-74
2022/12/30 06:01:57;;;;;;;15.40;3.80;;;6.70;95.90;;;;;;5027050;28;20034;-71
2022/12/30 06:04:24;;;;;;;13.82;3.53;;;6.70;95.90;;;;;;5050883;28;20557;-72
2022/12/30 06:06:50;;;;;;;14.50;3.63;;;6.70;95.90;;;;;;5028056;28;20535;-72
2022/12/30 06:09:15;;;;;;;12.75;2.50;;;6.70;95.90;;;;;;5045939;28;20035;-73
2022/12/30 06:11:42;;;;;;;21.92;5.00;;;6.80;96.00;;;;;;5043406;28;20079;-71
2022/12/30 06:14:10;;;;;;;16.80;3.53;;;6.70;96.00;;;;;;5048074;28;20034;-72
2022/12/30 06:16:36;;;;;;;17.05;3.80;;;6.80;96.00;;;;;;5042004;28;20029;-72
2022/12/30 06:19:02;;;;;;;18.55;3.28;;;6.80;96.00;;;;;;5040118;28;20029;-73
2022/12/30 06:21:27;;;;;;;16.00;4.32;;;6.80;96.00;;;;;;5042618;28;20385;-72
2022/12/30 06:23:53;;;;;;;16.98;3.55;;;6.80;96.00;;;;;;5053549;28;20457;-71
2022/12/30 06:26:18;;;;;;;22.30;3.75;;;6.80;95.90;;;;;;5040299;28;20057;-73
2022/12/30 06:28:44;;;;;;;23.13;4.10;;;6.80;96.00;;;;;;5022204;28;20029;-73
2022/12/30 06:31:10;;;;;;;18.85;4.68;;;6.80;96.00;;;;;;5064208;28;20032;-73
2022/12/30 06:33:36;;;;;;;21.48;4.10;;;6.80;96.10;;;;;;5040335;28;20048;-71
2022/12/30 06:36:02;;;;;;;15.07;4.30;;;6.80;96.00;;;;;;5057598;28;20052;-73
2022/12/30 06:38:27;;;;;;;20.15;3.95;;;6.80;96.00;;;;;;5034554;28;20562;-72
2022/12/30 06:40:53;;;;;;;21.75;5.15;;;6.70;96.10;;;;;;5055040;28;20103;-73
2022/12/30 06:43:19;;;;;;;13.50;3.15;;;6.80;96.10;;;;;;5032237;28;20029;-72
2022/12/30 06:45:45;;;;;;;13.27;3.40;;;6.80;96.10;;;;;;5062717;28;20017;-72
2022/12/30 06:48:11;;;;;;;24.02;5.40;;;6.80;96.20;;;;;;5017936;28;20030;-71
2022/12/30 06:50:38;;;;;;;20.67;4.60;;;6.80;96.10;;;;;;5038185;28;20065;-72
2022/12/30 06:53:05;;;;;;;18.67;3.45;;;6.80;96.10;;;;;;5039536;28;20029;-72
2022/12/30 06:55:30;;;;;;;17.23;4.07;;;6.70;96.10;;;;;;5058491;28;20033;-72
2022/12/30 06:57:56;;;;;;;17.05;3.42;;;6.80;96.10;;;;;;5058903;28;20017;-71
2022/12/30 07:00:21;;;;;;;17.00;4.63;;;6.70;96.10;;;;;;5055806;28;20917;-72
2022/12/30 07:02:48;;;;;;;15.18;3.13;;;6.70;96.10;;;;;;5053416;28;20029;-72
2022/12/30 07:05:14;;;;;;;14.50;3.55;;;6.70;96.20;;;;;;5046043;28;20055;-72
2022/12/30 07:07:39;;;;;;;17.85;4.07;;;6.70;96.20;;;;;;5037919;28;20028;-73
2022/12/30 07:10:05;;;;;;;21.65;3.28;;;6.70;96.20;;;;;;5047535;28;20037;-72
2022/12/30 07:12:31;;;;;;;19.88;4.80;;;6.70;96.20;;;;;;5046351;28;20020;-73
2022/12/30 07:14:57;;;;;;;17.83;4.65;;;6.70;96.30;;;;;;5042339;28;20016;-72
2022/12/30 07:17:23;;;;;;;15.60;3.17;;;6.60;96.20;;;;;;5024868;28;20025;-72
2022/12/30 07:19:49;;;;;;;12.52;3.40;;;6.60;96.30;;;;;;5032186;28;20435;-72
2022/12/30 07:22:16;;;;;;;16.45;4.03;;;6.70;96.50;;;;;;5051474;28;20035;-72
2022/12/30 07:24:42;;;;;;;9.38;2.75;;;6.60;96.30;;;;;;5042992;28;20675;-73
2022/12/30 07:27:10;;;;;;;17.60;3.88;;;6.60;96.50;;;;;;5036166;28;20223;-72
2022/12/30 07:29:36;;;;;;;14.48;3.35;;;6.70;96.50;;;;;;5044518;28;20041;-73
2022/12/30 07:32:01;;;;;;;17.58;3.67;;;6.60;96.60;;;;;;5046595;28;21173;-73
2022/12/30 07:34:27;;;;;;;19.15;4.93;;;6.70;96.50;;;;;;5041165;28;20171;-72
2022/12/30 07:36:53;;;;;;;12.65;3.30;;;6.70;96.50;;;;;;5046255;28;20029;-72
2022/12/30 07:39:18;;;;;;;21.48;3.63;;;6.70;96.50;;;;;;5043516;28;20029;-72
2022/12/30 07:41:44;;;;;;;16.10;3.50;;;6.70;96.50;;;;;;5041998;28;20573;-72
2022/12/30 07:44:10;;;;;;;17.40;3.80;;;6.70;96.50;;;;;;5041502;28;20040;-73
2022/12/30 07:46:36;;;;;;;16.08;3.22;;;6.80;96.80;;;;;;5045418;28;20017;-73
2022/12/30 07:49:02;;;;;;;10.70;2.78;;;6.80;96.50;;;;;;5043808;28;20475;-71
2022/12/30 07:51:28;;;;;;;15.10;2.83;;;6.90;96.50;;;;;;5044365;28;20104;-72
2022/12/30 07:53:54;;;;;;;18.23;3.95;;;6.90;96.40;;;;;;5029804;28;20029;-72
2022/12/30 07:56:20;;;;;;;11.48;3.08;;;6.90;96.70;;;;;;5043272;28;20026;-71
2022/12/30 07:58:45;;;;;;;11.38;3.53;;;6.90;96.30;;;;;;5040686;28;20029;-72
2022/12/30 08:01:13;;;;;;;18.23;4.53;;;7.00;96.30;;;;;;5047209;28;20090;-72
2022/12/30 08:03:40;;;;;;;14.20;3.63;;;7.00;96.50;;;;;;5044482;28;20036;-73
2022/12/30 08:06:12;;;;;;;17.25;4.40;;;7.00;96.20;;;;;;5039221;28;20479;-72
2022/12/30 08:08:38;;;;;;;14.23;3.20;;;7.00;96.30;;;;;;5050401;28;20474;-71
2022/12/30 08:11:05;;;;;;;18.60;3.67;;;7.10;96.20;;;;;;5040196;28;20100;-72
2022/12/30 08:13:32;;;;;;;16.48;3.75;;;7.10;96.10;;;;;;5047565;28;20021;-71
2022/12/30 08:15:58;;;;;;;11.88;2.75;;;7.20;96.00;;;;;;5038342;28;20064;-72
2022/12/30 08:18:23;;;;;;;15.13;4.53;;;7.10;96.10;;;;;;5044686;28;20521;-73
2022/12/30 08:20:49;;;;;;;12.02;2.72;;;7.20;96.10;;;;;;5042671;28;20151;-71
2022/12/30 08:23:15;;;;;;;11.15;2.33;;;7.20;96.10;;;;;;5045722;28;20024;-72
2022/12/30 08:25:40;;;;;;;8.77;2.78;;;7.20;95.90;;;;;;5041376;28;20124;-72
2022/12/30 08:28:06;;;;;;;11.23;3.25;;;7.20;95.90;;;;;;5046104;28;20052;-72
2022/12/30 08:30:32;;;;;;;13.75;3.53;;;7.30;95.80;;;;;;5042188;28;20091;-72
2022/12/30 08:32:57;;;;;;;10.25;2.65;;;7.20;95.90;;;;;;5044358;28;20035;-71
2022/12/30 08:35:23;;;;;;;10.02;3.13;;;7.30;95.80;;;;;;5027906;28;20145;-74
2022/12/30 08:37:49;;;;;;;12.35;2.95;;;7.30;95.70;;;;;;5039646;28;20021;-72
2022/12/30 08:40:15;;;;;;;12.73;2.95;;;7.40;95.70;;;;;;5043914;28;20018;-72
2022/12/30 08:42:40;;;;;;;12.43;3.55;;;7.40;95.60;;;;;;5036648;28;20018;-72
2022/12/30 08:45:07;;;;;;;11.93;3.17;;;7.50;95.60;;;;;;5038075;28;20017;-72
2022/12/30 08:47:34;;;;;;;8.18;2.78;;;7.40;95.60;;;;;;5033951;28;20068;-72
2022/12/30 08:50:00;;;;;;;14.18;2.97;;;7.50;95.50;;;;;;5038136;28;20419;-71
2022/12/30 08:52:27;;;;;;;9.52;2.25;;;7.50;95.40;;;;;;5037573;28;20085;-73
2022/12/30 08:54:53;;;;;;;9.25;2.85;;;7.50;95.50;;;;;;5037375;28;20017;-73
2022/12/30 08:57:18;;;;;;;13.15;3.35;;;7.60;95.40;;;;;;5042007;28;20205;-72
2022/12/30 08:59:44;;;;;;;9.38;2.45;;;7.60;95.40;;;;;;5042839;28;20395;-73
2022/12/30 09:02:13;;;;;;;6.78;1.52;;;7.60;95.30;;;;;;5040039;28;20052;-73
2022/12/30 09:04:39;;;;;;;11.57;2.37;;;7.70;95.20;;;;;;5025947;28;20494;-73
2022/12/30 09:07:05;;;;;;;12.75;2.63;;;7.70;95.20;;;;;;5041735;28;20029;-73
2022/12/30 09:09:31;;;;;;;8.40;2.00;;;7.80;95.10;;;;;;5034459;28;20060;-73
2022/12/30 09:11:56;;;;;;;9.02;2.28;;;7.80;95.00;;;;;;5049092;28;20131;-73
2022/12/30 09:14:23;;;;;;;10.27;2.08;;;7.80;95.00;;;;;;5046027;28;20104;-72
2022/12/30 09:16:48;;;;;;;10.45;2.50;;;7.90;94.90;;;;;;5037073;28;20025;-73
2022/12/30 09:19:15;;;;;;;12.48;2.42;;;7.90;94.80;;;;;;5032826;28;20031;-72
2022/12/30 09:21:41;;;;;;;8.15;2.03;;;8.00;94.80;;;;;;5031723;28;20037;-71
2022/12/30 09:24:07;;;;;;;8.90;3.00;;;8.00;94.70;;;;;;5032206;28;20029;-71
2022/12/30 09:26:33;;;;;;;8.85;2.58;;;8.20;94.60;;;;;;5052040;28;20029;-72
2022/12/30 09:28:59;;;;;;;8.30;2.00;;;8.20;94.50;;;;;;5046312;28;20125;-71
2022/12/30 09:31:25;;;;;;;9.18;2.28;;;8.30;94.30;;;;;;5055974;28;20502;-73
2022/12/30 09:33:53;;;;;;;7.43;2.00;;;8.20;94.20;;;;;;5028984;28;20072;-72
2022/12/30 09:36:19;;;;;;;10.32;2.13;;;8.30;94.20;;;;;;5041828;28;20186;-72
2022/12/30 09:38:45;;;;;;;5.90;1.80;;;8.40;94.10;;;;;;5034865;28;20140;-71
2022/12/30 09:43:14;;;;;;;8.18;2.20;;;8.40;94.00;;;;;;5039693;28;20025;-73
2022/12/30 09:44:21;;;;;;;9.85;2.22;;;8.40;94.00;;;;;;5032758;28;20471;-71
2022/12/30 09:47:11;;;;;;;6.07;1.52;;;8.50;93.90;;;;;;5039198;28;20029;-71
2022/12/30 09:49:42;;;;;;;13.73;2.45;;;8.50;93.80;;;;;;5025501;28;20033;-71
2022/12/30 09:52:19;;;;;;;8.32;2.15;;;8.50;93.70;;;;;;5045113;28;20082;-72
2022/12/30 09:55:03;;;;;;;8.55;1.58;;;8.50;93.80;;;;;;5030782;28;20029;-75
2022/12/30 09:57:31;;;;;;;7.95;2.17;;;8.60;93.80;;;;;;5037325;28;20044;-73
2022/12/30 10:00:20;;;;;;;9.23;2.90;;;8.50;93.70;;;;;;5030091;28;20021;-72
2022/12/30 10:03:06;;;;;;;8.45;1.92;;;8.50;93.60;;;;;;5013178;28;20415;-73
2022/12/30 10:05:51;;;;;;;10.52;1.98;;;8.50;93.60;;;;;;5028354;28;20025;-72
2022/12/30 10:08:25;;;;;;;8.60;2.20;;;8.60;93.80;;;;;;5032990;28;20191;-72
2022/12/30 10:11:06;;;;;;;10.45;2.22;;;8.50;93.80;;;;;;5014434;28;20048;-72
2022/12/30 10:13:44;;;;;;;13.30;1.83;;;8.60;93.70;;;;;;5029743;28;20026;-73
2022/12/30 10:16:21;;;;;;;9.40;2.42;;;8.60;94.20;;;;;;5030954;28;20033;-73
2022/12/30 10:19:04;;;;;;;7.95;1.70;;;8.60;94.00;;;;;;5013418;28;20030;-72
2022/12/30 10:21:57;;;;;;;7.22;2.15;;;8.60;94.50;;;;;;5029753;28;20036;-73
2022/12/30 10:24:43;;;;;;;9.27;2.35;;;8.60;93.70;;;;;;5025424;28;20052;-73
2022/12/30 10:27:21;;;;;;;9.40;2.00;;;8.70;94.30;;;;;;5029418;28;20479;-72
2022/12/30 10:29:47;;;;;;;5.82;1.70;;;8.70;94.50;;;;;;5027686;28;20091;-71
2022/12/30 10:32:19;;;;;;;12.80;3.15;;;8.80;94.60;;;;;;5027605;28;20044;-73
2022/12/30 10:34:47;;;;;;;7.93;2.05;;;8.80;94.50;;;;;;5029061;28;20021;-73
2022/12/30 10:37:31;;;;;;;13.40;1.55;;;8.80;94.40;;;;;;5031916;28;20062;-71
2022/12/30 10:39:58;;;;;;;10.27;1.63;;;8.80;94.40;;;;;;5027281;28;20100;-72
2022/12/30 10:42:47;;;;;;;12.50;2.63;;;8.80;94.90;;;;;;5029052;28;20431;-73
2022/12/30 10:45:47;;;;;;;9.77;1.90;;;8.80;94.70;;;;;;5011130;28;20026;-74
2022/12/30 10:48:24;;;;;;;10.27;2.20;;;8.80;95.00;;;;;;5011518;28;20026;-73
2022/12/30 10:50:52;;;;;;;7.00;2.10;;;8.70;95.10;;;;;;5027451;28;20073;-72
2022/12/30 10:53:26;;;;;;;7.00;1.88;;;8.70;95.00;;;;;;5013252;28;20446;-73
2022/12/30 10:55:57;;;;;;;12.60;2.30;;;8.70;94.60;;;;;;5029402;28;20061;-76
2022/12/30 10:58:46;;;;;;;11.10;2.63;;;8.80;95.10;;;;;;5029983;28;20375;-73
2022/12/30 11:01:23;;;;;;;8.82;2.10;;;8.70;94.20;;;;;;5028916;28;20025;-74
2022/12/30 11:03:52;;;;;;;7.93;2.22;;;8.80;94.80;;;;;;5027849;28;20029;-73
2022/12/30 11:06:22;;;;;;;12.45;2.08;;;8.80;94.90;;;;;;5029404;28;20025;-73
2022/12/30 11:08:49;;;;;;;;;;;8.80;94.90;;;;;;5032603;28;20030;-74
2022/12/30 11:11:17;;;;;;;8.60;2.10;;;8.80;94.80;;;;;;5031907;28;19916;-72
2022/12/30 11:16:41;;;;;;;9.32;2.65;;;8.80;95.50;;;;;;5031620;28;20122;-75
2022/12/30 11:19:23;;;;;;;11.85;2.50;;;8.80;94.50;;;;;;5035146;28;20476;-74
2022/12/30 11:21:54;;;;;;;6.65;2.00;;;8.80;94.70;;;;;;5032012;28;20108;-73
2022/12/30 11:24:21;;;;;;;16.48;2.72;;;8.90;94.80;;;;;;5019785;28;20056;-73
2022/12/30 11:26:48;;;;;;;6.82;1.52;;;9.00;95.60;;;;;;5034092;28;20022;-70
2022/12/30 11:29:19;;;;;;;11.00;2.88;;;9.00;95.10;;;;;;5035457;28;20042;-73
2022/12/30 11:31:48;;;;;;;7.82;1.80;;;9.00;95.50;;;;;;5035747;28;20029;-73
2022/12/30 11:34:20;;;;;;;10.15;1.67;;;9.00;94.60;;;;;;5032147;28;20022;-74
2022/12/30 11:36:46;;;;;;;8.95;2.08;;;9.10;94.80;;;;;;5029080;28;20087;-71
2022/12/30 11:39:15;;;;;;;5.35;1.45;;;9.10;95.30;;;;;;5025268;28;20017;-73
2022/12/30 11:41:49;;;;;;;10.15;1.77;;;9.10;94.50;;;;;;5033741;28;20787;-72
2022/12/30 11:44:23;;;;;;;5.50;1.50;;;9.10;94.30;;;;;;5033752;28;20048;-71
2022/12/30 11:46:53;;;;;;;16.15;3.25;;;9.20;95.30;;;;;;5033450;28;20037;-72
2022/12/30 11:49:44;;;;;;;6.13;1.98;;;9.20;94.80;;;;;;5034923;28;20091;-73
2022/12/30 11:52:26;;;;;;;10.77;2.33;;;9.20;94.00;;;;;;5035072;28;20044;-72
2022/12/30 11:54:58;;;;;;;6.55;1.40;;;9.20;94.20;;;;;;5035320;28;20047;-75
2022/12/30 11:57:42;;;;;;;9.63;2.60;;;9.20;94.30;;;;;;5030920;28;20040;-74
2022/12/30 12:00:17;;;;;;;7.97;2.08;;;9.20;94.50;;;;;;5023040;28;20513;-74
2022/12/30 12:02:48;;;;;;;7.38;2.05;;;9.20;94.30;;;;;;5029574;28;20029;-73
2022/12/30 12:05:20;;;;;;;10.40;1.65;;;9.30;94.70;;;;;;5039014;28;20057;-75
2022/12/30 12:07:47;;;;;;;7.93;2.28;;;9.30;94.40;;;;;;5031177;28;20029;-72
2022/12/30 12:10:22;;;;;;;8.20;2.08;;;9.30;95.20;;;;;;5030228;28;20094;-72
2022/12/30 12:13:03;;;;;;;4.97;1.73;;;9.40;95.00;;;;;;5032589;28;20033;-71
2022/12/30 12:15:53;;;;;;;6.60;1.30;;;9.40;94.90;;;;;;5030265;28;20031;-75
2022/12/30 12:18:57;;;;;;;8.50;1.63;;;9.40;94.30;;;;;;5028034;28;20048;-72
2022/12/30 12:21:25;;;;;;;9.00;2.00;;;9.40;94.40;;;;;;5014595;28;20124;-74
2022/12/30 12:24:35;;;;;;;4.45;1.23;;;9.40;94.70;;;;;;5011781;28;20112;-74
2022/12/30 12:27:13;;;;;;;8.88;1.67;;;9.40;94.30;;;;;;4987808;28;20151;-72
2022/12/30 12:29:40;;;;;;;7.55;2.08;;;9.40;94.30;;;;;;4994391;28;20153;-72
2022/12/30 12:32:34;;;;;;;6.82;1.77;;;9.40;93.90;;;;;;4998705;28;20678;-74
2022/12/30 12:35:09;;;;;;;4.22;1.20;;;9.40;94.40;;;;;;4994805;28;20052;-73
2022/12/30 12:37:43;;;;;;;9.02;1.88;;;9.30;93.40;;;;;;4998141;28;20033;-74
2022/12/30 12:40:50;;;;;;;5.45;1.17;;;9.40;93.30;;;;;;5005943;28;20037;-73
2022/12/30 12:43:44;;;;;;;8.95;2.63;;;9.50;94.10;;;;;;5014032;28;20038;-72
2022/12/30 12:46:33;;;;;;;9.82;1.70;;;9.60;94.20;;;;;;5000488;28;20080;-74
2022/12/30 12:49:26;;;;;;;11.80;2.93;;;9.60;93.40;;;;;;5011053;28;20054;-72
2022/12/30 12:52:01;;;;;;;7.35;1.63;;;9.60;93.20;;;;;;5012180;28;20375;-72
2022/12/30 12:54:41;;;;;;;12.70;1.67;;;9.50;93.00;;;;;;5000252;28;20022;-72
2022/12/30 12:57:23;;;;;;;9.43;1.42;;;9.60;93.80;;;;;;5009290;28;20025;-76
2022/12/30 13:00:07;;;;;;;5.75;1.88;;;9.60;93.60;;;;;;5005280;28;20030;-73
2022/12/30 13:03:07;;;;;;;8.40;1.80;;;9.60;94.00;;;;;;5009283;28;20060;-73
2022/12/30 13:06:01;;;;;;;8.70;2.00;;;9.60;93.80;;;;;;4999150;28;20027;-72
2022/12/30 13:08:40;;;;;;;12.43;1.88;;;9.60;93.90;;;;;;4997396;28;20228;-72
2022/12/30 13:11:15;;;;;;;8.90;1.65;;;9.60;93.60;;;;;;4995223;28;20104;-74
2022/12/30 13:14:15;;;;;;;9.07;2.10;;;9.50;93.80;;;;;;4995909;28;20072;-73
2022/12/30 13:16:50;;;;;;;7.70;1.60;;;9.40;94.10;;;;;;4991886;28;20031;-72
2022/12/30 13:19:20;;;;;;;11.60;2.30;;;9.50;94.30;;;;;;4992765;28;20045;-73
2022/12/30 13:21:52;;;;;;;8.60;2.08;;;9.50;95.10;;;;;;4995661;28;20548;-74
2022/12/30 13:24:31;;;;;;;8.88;1.67;;;9.60;95.20;;;;;;5006268;28;20105;-74
2022/12/30 13:26:58;;;;;;;11.63;1.70;;;9.50;95.10;;;;;;5023997;28;20049;-74
2022/12/30 13:29:31;;;;;;;13.10;1.95;;;9.50;95.00;;;;;;5050104;28;20021;-73
2022/12/30 13:32:02;;;;;;;6.60;1.60;;;9.50;95.20;;;;;;5019457;28;20511;-72
2022/12/30 13:34:36;;;;;;;8.77;1.70;;;9.50;95.30;;;;;;5042761;28;20044;-74
2022/12/30 13:37:30;;;;;;;9.18;1.63;;;9.50;95.20;;;;;;5034094;28;20013;-74
2022/12/30 13:40:17;;;;;;;9.90;1.80;;;9.50;95.30;;;;;;5041284;28;20036;-73
2022/12/30 13:43:15;;;;;;;9.98;1.92;;;9.40;95.50;;;;;;5037917;28;20030;-75
2022/12/30 13:45:51;;;;;;;7.45;2.13;;;9.40;95.40;;;;;;5041822;28;20048;-75
2022/12/30 13:48:22;;;;;;;10.18;1.60;;;9.30;95.60;;;;;;5045210;28;20022;-75
2022/12/30 13:51:14;;;;;;;9.80;1.88;;;9.30;95.80;;;;;;5049502;28;20084;-74
2022/12/30 13:53:50;;;;;;;6.10;2.20;;;9.30;95.70;;;;;;5035386;28;20028;-73
2022/12/30 13:56:20;;;;;;;6.38;1.70;;;9.30;95.80;;;;;;5044907;28;20025;-73
2022/12/30 13:58:51;;;;;;;12.23;2.58;;;9.30;96.10;;;;;;5044791;28;20017;-73
2022/12/30 14:01:19;;;;;;;9.65;2.10;;;9.20;96.20;;;;;;5033939;28;20018;-74
2022/12/30 14:03:49;;;;;;;4.50;1.52;;;9.20;96.20;;;;;;5041366;28;20469;-74
2022/12/30 14:06:28;;;;;;;7.95;1.45;;;9.30;96.30;;;;;;5027257;28;20056;-75